Time;durP1;ratioP1;P1;durP2;ratioP2;P2;SDS_P1;SDS_P2;PMS_P1;PMS_P2;Temp;Humidity;BMP_temperature;BMP_pressure;BME280_temperature;BME280_humidity;BME280_pressure;Samples;Min_cycle;Max_cycle;Signal;HPM_P1;HPM_P2
2023/08/03 00:00:56;;;;;;;6.55;2.05;;;22.00;61.80;;;;;;5115808;28;20239;-58
2023/08/03 00:03:24;;;;;;;8.95;2.00;;;22.00;61.80;;;;;;5115406;28;20234;-58
2023/08/03 00:05:51;;;;;;;7.97;2.40;;;22.00;61.80;;;;;;5115602;28;20213;-56
2023/08/03 00:08:19;;;;;;;6.72;1.48;;;22.00;61.80;;;;;;5115538;28;20185;-56
2023/08/03 00:10:46;;;;;;;6.00;1.70;;;22.00;61.80;;;;;;5115646;28;20189;-59
2023/08/03 00:13:13;;;;;;;7.55;2.10;;;22.00;61.80;;;;;;5115470;28;20288;-57
2023/08/03 00:15:41;;;;;;;10.00;2.67;;;22.00;61.70;;;;;;5115481;28;20217;-55
2023/08/03 00:18:10;;;;;;;7.57;2.25;;;22.00;61.80;;;;;;5114955;28;20186;-57
2023/08/03 00:20:37;;;;;;;8.05;2.15;;;22.00;61.80;;;;;;5115406;28;20193;-60
2023/08/03 00:23:05;;;;;;;7.72;2.00;;;22.00;61.80;;;;;;5115478;28;20196;-56
2023/08/03 00:25:32;;;;;;;6.85;2.20;;;21.90;61.70;;;;;;5115436;28;20360;-54
2023/08/03 00:28:00;;;;;;;6.13;1.65;;;21.90;61.70;;;;;;5115203;28;20192;-61
2023/08/03 00:30:28;;;;;;;5.65;1.90;;;22.00;61.80;;;;;;5115094;28;20232;-59
2023/08/03 00:32:55;;;;;;;5.88;1.95;;;22.00;61.80;;;;;;5115154;28;20185;-56
2023/08/03 00:35:25;;;;;;;11.52;2.15;;;22.00;61.80;;;;;;5114895;28;20244;-58
2023/08/03 00:37:53;;;;;;;11.00;2.13;;;22.00;61.80;;;;;;5115333;28;20193;-54
2023/08/03 00:40:21;;;;;;;4.53;1.60;;;21.90;61.70;;;;;;5115233;28;20282;-54
2023/08/03 00:42:48;;;;;;;6.10;1.92;;;21.90;61.70;;;;;;5114733;28;20212;-58
2023/08/03 00:45:16;;;;;;;7.65;1.63;;;22.00;61.80;;;;;;5114394;28;20323;-59
2023/08/03 00:47:44;;;;;;;8.43;1.77;;;21.90;61.70;;;;;;5114862;28;20267;-62
2023/08/03 00:50:11;;;;;;;7.47;1.50;;;21.90;61.70;;;;;;5115116;28;20214;-58
2023/08/03 00:52:40;;;;;;;5.07;1.60;;;21.90;61.70;;;;;;5114786;28;20204;-59
2023/08/03 00:55:09;;;;;;;5.53;1.80;;;21.90;61.70;;;;;;5114936;28;20209;-61
2023/08/03 00:57:36;;;;;;;8.35;1.88;;;21.90;61.70;;;;;;5114631;28;20189;-57
2023/08/03 01:00:04;;;;;;;10.63;2.10;;;21.90;61.70;;;;;;5114657;28;20304;-57
2023/08/03 01:02:34;;;;;;;5.45;2.00;;;21.90;61.70;;;;;;5114555;28;20189;-57
2023/08/03 01:05:01;;;;;;;5.57;1.55;;;21.90;61.70;;;;;;5114602;28;20221;-56
2023/08/03 01:07:28;;;;;;;5.45;1.70;;;21.90;61.70;;;;;;5114473;28;20192;-58
2023/08/03 01:09:57;;;;;;;5.88;1.85;;;21.90;61.70;;;;;;5114806;28;20296;-60
2023/08/03 01:12:25;;;;;;;5.90;1.65;;;21.90;61.70;;;;;;5114363;28;20185;-57
2023/08/03 01:14:52;;;;;;;11.05;1.92;;;21.90;62.50;;;;;;5114503;28;20220;-57
2023/08/03 01:17:21;;;;;;;8.90;2.10;;;21.90;61.70;;;;;;5114429;28;20584;-56
2023/08/03 01:19:48;;;;;;;6.25;2.13;;;21.90;61.70;;;;;;5114006;28;20217;-58
2023/08/03 01:22:17;;;;;;;6.53;1.67;;;21.90;61.70;;;;;;5114172;28;20185;-58
2023/08/03 01:24:46;;;;;;;6.47;1.67;;;21.90;61.70;;;;;;5114275;28;20217;-55
2023/08/03 01:27:13;;;;;;;8.82;1.77;;;21.90;61.70;;;;;;5113728;28;20218;-58
2023/08/03 01:29:41;;;;;;;6.68;1.85;;;21.90;61.70;;;;;;5114158;28;20224;-58
2023/08/03 01:32:09;;;;;;;6.28;1.73;;;21.80;61.60;;;;;;5113991;28;20189;-58
2023/08/03 01:34:36;;;;;;;4.40;1.25;;;21.90;61.70;;;;;;5113939;28;20229;-56
2023/08/03 01:37:04;;;;;;;6.05;1.50;;;21.90;61.70;;;;;;5113838;28;20200;-58
2023/08/03 01:39:32;;;;;;;5.07;1.60;;;21.90;61.70;;;;;;5113645;28;20221;-58
2023/08/03 01:42:01;;;;;;;4.47;1.40;;;21.90;61.70;;;;;;5113742;28;20201;-58
2023/08/03 01:44:29;;;;;;;5.88;1.80;;;21.90;61.70;;;;;;5113817;28;20225;-59
2023/08/03 01:46:58;;;;;;;4.88;1.65;;;21.90;61.70;;;;;;5113686;28;20217;-58
2023/08/03 01:49:28;;;;;;;6.07;1.65;;;21.90;61.70;;;;;;5113401;28;20277;-58
2023/08/03 01:51:55;;;;;;;3.53;1.30;;;21.90;61.70;;;;;;5113288;28;20643;-59
2023/08/03 01:54:23;;;;;;;6.57;1.60;;;21.90;61.70;;;;;;5113474;28;20217;-57
2023/08/03 01:56:51;;;;;;;4.63;1.67;;;21.90;61.70;;;;;;5112201;28;20190;-59
2023/08/03 01:59:20;;;;;;;6.72;1.83;;;21.90;61.70;;;;;;5132381;27;20216;-57
2023/08/03 02:01:47;;;;;;;6.68;2.15;;;21.90;61.70;;;;;;5132733;27;20267;-56
2023/08/03 02:04:15;;;;;;;9.45;1.73;;;21.90;61.70;;;;;;5133974;27;20582;-61
2023/08/03 02:06:48;;;;;;;6.25;1.70;;;21.90;61.70;;;;;;5133450;27;20216;-56
2023/08/03 02:09:16;;;;;;;5.22;1.63;;;21.90;61.70;;;;;;5133845;27;20216;-61
2023/08/03 02:11:44;;;;;;;8.30;1.90;;;21.90;61.70;;;;;;5133816;27;20185;-59
2023/08/03 02:14:11;;;;;;;6.85;1.45;;;21.90;61.70;;;;;;5132695;27;20589;-58
2023/08/03 02:16:41;;;;;;;5.75;1.58;;;21.80;61.60;;;;;;5133658;27;20386;-60
2023/08/03 02:19:08;;;;;;;4.95;1.60;;;21.90;61.70;;;;;;5133902;27;20220;-58
2023/08/03 02:21:36;;;;;;;6.65;1.60;;;21.90;61.70;;;;;;5133672;27;20189;-57
2023/08/03 02:24:03;;;;;;;7.93;2.45;;;21.90;61.70;;;;;;5133798;27;20255;-56
2023/08/03 02:26:31;;;;;;;8.23;1.70;;;21.80;62.40;;;;;;5133515;27;20212;-56
2023/08/03 02:29:01;;;;;;;7.88;1.88;;;21.80;61.60;;;;;;5133349;27;20216;-58
2023/08/03 02:31:29;;;;;;;6.40;2.00;;;21.80;61.70;;;;;;5131925;27;20271;-59
2023/08/03 02:33:58;;;;;;;4.55;1.63;;;21.80;61.60;;;;;;5126799;27;20224;-58
2023/08/03 02:36:25;;;;;;;6.78;2.08;;;21.80;61.60;;;;;;5113063;28;20193;-56
2023/08/03 02:38:53;;;;;;;6.45;1.80;;;21.80;61.60;;;;;;5112490;28;20232;-57
2023/08/03 02:41:20;;;;;;;7.65;1.90;;;21.90;61.70;;;;;;5112790;28;20185;-56
2023/08/03 02:43:48;;;;;;;6.88;1.98;;;21.80;61.60;;;;;;5112807;28;20197;-58
2023/08/03 02:46:15;;;;;;;7.35;1.73;;;21.80;61.60;;;;;;5112744;28;20226;-55
2023/08/03 02:48:43;;;;;;;5.03;1.95;;;21.80;61.60;;;;;;5112835;28;20259;-56
2023/08/03 02:51:12;;;;;;;8.65;2.25;;;21.80;61.60;;;;;;5113009;28;20185;-54
2023/08/03 02:53:39;;;;;;;6.28;1.80;;;21.80;61.60;;;;;;5112733;28;20261;-56
2023/08/03 02:56:07;;;;;;;4.75;1.67;;;21.80;61.60;;;;;;5112701;28;20197;-58
2023/08/03 02:58:34;;;;;;;7.03;1.85;;;21.80;61.70;;;;;;5112599;28;20185;-59
2023/08/03 03:01:02;;;;;;;4.03;1.50;;;21.80;61.70;;;;;;5112965;28;20192;-58
2023/08/03 03:03:30;;;;;;;8.30;2.58;;;21.80;61.60;;;;;;5112736;28;20200;-58
2023/08/03 03:05:57;;;;;;;7.28;2.03;;;21.80;61.60;;;;;;5112528;28;20236;-57
2023/08/03 03:08:26;;;;;;;6.85;1.88;;;21.80;61.60;;;;;;5116336;28;20182;-58
2023/08/03 03:10:54;;;;;;;7.65;1.85;;;21.80;61.60;;;;;;5117006;28;20357;-58
2023/08/03 03:13:23;;;;;;;5.53;1.77;;;21.80;61.70;;;;;;5116719;28;20250;-55
2023/08/03 03:15:50;;;;;;;8.00;1.77;;;21.80;61.60;;;;;;5116545;28;20749;-57
2023/08/03 03:18:18;;;;;;;3.97;1.73;;;21.80;61.60;;;;;;5116614;28;20222;-54
2023/08/03 03:20:48;;;;;;;5.70;1.77;;;21.80;61.60;;;;;;5116821;28;20303;-61
2023/08/03 03:23:16;;;;;;;5.70;2.08;;;21.80;61.60;;;;;;5116202;28;20186;-56
2023/08/03 03:25:45;;;;;;;6.25;1.73;;;21.80;61.60;;;;;;5116750;28;20217;-58
2023/08/03 03:28:12;;;;;;;4.60;1.55;;;21.80;61.70;;;;;;5116011;28;20193;-59
2023/08/03 03:30:40;;;;;;;4.00;1.77;;;21.80;61.70;;;;;;5116594;28;20217;-55
2023/08/03 03:33:07;;;;;;;4.95;1.98;;;21.80;61.70;;;;;;5116382;28;20185;-57
2023/08/03 03:35:34;;;;;;;5.38;1.70;;;21.80;61.70;;;;;;5116497;28;20212;-62
2023/08/03 03:38:05;;;;;;;5.47;1.65;;;21.80;61.70;;;;;;5116637;28;20212;-53
2023/08/03 03:40:32;;;;;;;7.25;1.88;;;21.80;61.70;;;;;;5116348;28;20217;-54
2023/08/03 03:43:01;;;;;;;9.05;1.92;;;21.80;61.70;;;;;;5116160;28;20186;-57
2023/08/03 03:45:29;;;;;;;6.53;1.73;;;21.80;61.70;;;;;;5116277;28;20267;-56
2023/08/03 03:47:57;;;;;;;6.68;1.63;;;21.80;61.70;;;;;;5115961;28;20229;-58
2023/08/03 03:50:24;;;;;;;8.02;2.17;;;21.80;61.70;;;;;;5116110;28;20228;-58
2023/08/03 03:52:52;;;;;;;6.45;2.35;;;21.80;61.70;;;;;;5115979;28;20194;-58
2023/08/03 03:55:19;;;;;;;7.63;2.00;;;21.80;61.70;;;;;;5116058;28;20221;-57
2023/08/03 03:57:46;;;;;;;6.40;1.80;;;21.80;61.70;;;;;;5115861;27;20189;-60
2023/08/03 04:00:16;;;;;;;6.38;1.75;;;21.80;61.70;;;;;;5115978;28;20253;-58
2023/08/03 04:02:43;;;;;;;7.15;1.80;;;21.80;61.70;;;;;;5115748;28;20193;-60
2023/08/03 04:05:11;;;;;;;6.18;1.80;;;21.80;61.80;;;;;;5115758;28;20712;-53
2023/08/03 04:07:38;;;;;;;4.55;1.70;;;21.80;61.70;;;;;;5115578;28;20213;-53
2023/08/03 04:10:07;;;;;;;5.07;1.77;;;21.80;61.70;;;;;;5115441;28;20224;-56
2023/08/03 04:12:34;;;;;;;7.00;1.90;;;21.80;61.70;;;;;;5115629;28;20213;-58
2023/08/03 04:15:02;;;;;;;7.60;1.50;;;21.80;61.70;;;;;;5115852;28;20221;-56
2023/08/03 04:17:31;;;;;;;5.82;2.03;;;21.70;61.60;;;;;;5115457;28;20182;-56
2023/08/03 04:19:59;;;;;;;5.72;1.95;;;21.80;61.70;;;;;;5114513;28;20308;-57
2023/08/03 04:22:26;;;;;;;3.88;1.63;;;21.80;61.70;;;;;;5115434;28;20186;-58
2023/08/03 04:24:54;;;;;;;5.25;1.67;;;21.70;61.60;;;;;;5115163;28;20221;-56
2023/08/03 04:27:22;;;;;;;3.15;1.75;;;21.80;62.60;;;;;;5114920;28;20312;-53
2023/08/03 04:29:50;;;;;;;6.78;1.80;;;21.70;61.60;;;;;;5115271;28;20214;-56
2023/08/03 04:32:17;;;;;;;5.65;1.67;;;21.70;61.60;;;;;;5115210;28;20234;-58
2023/08/03 04:34:46;;;;;;;6.78;1.67;;;21.70;61.70;;;;;;5114855;28;20236;-58
2023/08/03 04:37:13;;;;;;;6.05;1.70;;;21.70;61.60;;;;;;5115385;28;20189;-58
2023/08/03 04:39:41;;;;;;;7.80;1.83;;;21.70;61.60;;;;;;5115083;28;20216;-59
2023/08/03 04:42:08;;;;;;;6.25;1.85;;;21.70;61.70;;;;;;5115216;28;20189;-57
2023/08/03 04:44:36;;;;;;;4.50;1.65;;;21.70;61.60;;;;;;5114953;28;20213;-58
2023/08/03 04:47:03;;;;;;;4.80;1.90;;;21.70;61.60;;;;;;5114816;28;20224;-56
2023/08/03 04:49:31;;;;;;;8.38;1.80;;;21.70;61.70;;;;;;5114878;28;20212;-58
2023/08/03 04:52:00;;;;;;;6.32;1.90;;;21.70;61.70;;;;;;5114468;28;20197;-54
2023/08/03 04:54:27;;;;;;;6.03;1.80;;;21.70;61.70;;;;;;5114792;28;20216;-58
2023/08/03 04:56:55;;;;;;;5.07;1.30;;;21.70;61.70;;;;;;5114761;28;20186;-58
2023/08/03 04:59:23;;;;;;;7.03;1.83;;;21.70;61.70;;;;;;5114333;28;20221;-58
2023/08/03 05:01:50;;;;;;;3.33;1.52;;;21.70;61.70;;;;;;5114580;28;20185;-57
2023/08/03 05:04:18;;;;;;;4.93;1.40;;;21.70;61.70;;;;;;5114706;28;20224;-58
2023/08/03 05:06:45;;;;;;;5.72;2.00;;;21.70;62.50;;;;;;5114427;28;20235;-59
2023/08/03 05:09:14;;;;;;;5.85;1.40;;;21.70;61.70;;;;;;5114039;28;20303;-54
2023/08/03 05:11:42;;;;;;;4.38;1.50;;;21.70;61.70;;;;;;5114039;28;20276;-59
2023/08/03 05:14:09;;;;;;;8.82;2.20;;;21.70;61.70;;;;;;5114385;28;20303;-59
2023/08/03 05:16:37;;;;;;;3.33;1.50;;;21.70;61.70;;;;;;5114347;28;20181;-58
2023/08/03 05:19:04;;;;;;;6.40;1.65;;;21.70;61.80;;;;;;5114322;28;20268;-62
2023/08/03 05:21:32;;;;;;;6.53;1.95;;;21.70;61.80;;;;;;5113981;28;20317;-60
2023/08/03 05:24:00;;;;;;;5.72;1.55;;;21.70;61.80;;;;;;5114399;28;20189;-58
2023/08/03 05:26:32;;;;;;;6.30;1.60;;;21.70;61.90;;;;;;5113703;28;20258;-57
2023/08/03 05:29:00;;;;;;;4.00;1.55;;;21.70;61.90;;;;;;5113690;28;20197;-58
2023/08/03 05:31:31;;;;;;;4.80;1.60;;;21.70;61.90;;;;;;5114089;28;20197;-59
2023/08/03 05:33:58;;;;;;;5.20;1.65;;;21.70;61.90;;;;;;5113486;28;20225;-58
2023/08/03 05:36:26;;;;;;;3.80;1.60;;;21.70;62.00;;;;;;5114055;28;20193;-59
2023/08/03 05:38:54;;;;;;;5.15;2.03;;;21.70;62.00;;;;;;5114153;28;20193;-57
2023/08/03 05:41:23;;;;;;;2.58;1.40;;;21.70;62.10;;;;;;5113868;28;20185;-60
2023/08/03 05:43:54;;;;;;;2.50;1.42;;;21.70;62.00;;;;;;5113838;28;20191;-60
2023/08/03 05:46:21;;;;;;;4.80;1.60;;;21.70;62.00;;;;;;5113805;28;20194;-57
2023/08/03 05:48:52;;;;;;;4.15;1.60;;;21.70;62.00;;;;;;5113568;28;20233;-59
2023/08/03 05:51:25;;;;;;;3.90;1.40;;;21.70;62.00;;;;;;5113403;28;20189;-58
2023/08/03 05:53:53;;;;;;;3.80;1.70;;;21.70;62.00;;;;;;5113300;28;20190;-59
2023/08/03 05:56:21;;;;;;;4.22;1.80;;;21.70;62.00;;;;;;5113557;28;20189;-58
2023/08/03 05:58:49;;;;;;;4.35;1.50;;;21.70;62.00;;;;;;5113363;27;20192;-55
2023/08/03 06:01:21;;;;;;;4.13;1.45;;;21.70;62.00;;;;;;5113652;27;20217;-58
2023/08/03 06:03:51;;;;;;;3.90;1.48;;;21.70;62.00;;;;;;5111909;28;20318;-60
2023/08/03 06:06:20;;;;;;;5.57;1.75;;;21.60;61.90;;;;;;5113551;28;20213;-58
2023/08/03 06:08:50;;;;;;;5.68;1.60;;;21.70;62.00;;;;;;5113243;28;20216;-58
2023/08/03 06:11:20;;;;;;;6.00;1.98;;;21.70;62.00;;;;;;5113539;28;20217;-57
2023/08/03 06:13:48;;;;;;;3.63;1.48;;;21.70;62.10;;;;;;5113188;28;20238;-58
2023/08/03 06:16:16;;;;;;;2.88;1.58;;;21.70;62.10;;;;;;5113390;28;20213;-60
2023/08/03 06:18:49;;;;;;;4.05;1.33;;;21.60;61.90;;;;;;5113135;28;20202;-59
2023/08/03 06:21:18;;;;;;;3.70;1.30;;;21.60;61.90;;;;;;5113091;28;20763;-59
2023/08/03 06:23:47;;;;;;;3.95;1.35;;;21.70;62.10;;;;;;5112947;28;20189;-59
2023/08/03 06:26:16;;;;;;;4.13;1.40;;;21.60;61.90;;;;;;5113296;28;20213;-57
2023/08/03 06:28:44;;;;;;;5.07;1.40;;;21.60;61.90;;;;;;5112923;28;20217;-58
2023/08/03 06:31:15;;;;;;;6.50;1.60;;;21.60;61.90;;;;;;5112967;28;20265;-57
2023/08/03 06:33:44;;;;;;;5.18;1.40;;;21.70;62.10;;;;;;5112512;28;20221;-58
2023/08/03 06:36:17;;;;;;;4.30;1.70;;;21.70;62.10;;;;;;5113170;28;20217;-55
2023/08/03 06:38:45;;;;;;;3.75;1.50;;;21.70;62.10;;;;;;5112919;28;20185;-58
2023/08/03 06:41:12;;;;;;;3.33;1.48;;;21.60;61.90;;;;;;5112800;28;20224;-57
2023/08/03 06:43:40;;;;;;;3.00;1.38;;;21.60;61.90;;;;;;5112843;28;20303;-57
2023/08/03 06:46:07;;;;;;;4.05;1.40;;;21.70;62.10;;;;;;5113049;28;20217;-57
2023/08/03 06:48:35;;;;;;;3.83;1.55;;;21.70;62.10;;;;;;5112702;28;20357;-58
2023/08/03 06:51:03;;;;;;;8.30;1.60;;;21.60;62.00;;;;;;5112971;28;20224;-58
2023/08/03 06:53:33;;;;;;;6.07;1.63;;;21.60;62.00;;;;;;5112754;28;20189;-57
2023/08/03 06:56:00;;;;;;;4.22;1.75;;;21.60;62.00;;;;;;5112625;28;20304;-58
2023/08/03 06:58:28;;;;;;;3.47;1.55;;;21.60;62.00;;;;;;5112412;28;20185;-58
2023/08/03 07:00:56;;;;;;;2.85;1.30;;;21.60;62.00;;;;;;5112887;28;20220;-56
2023/08/03 07:03:24;;;;;;;3.35;1.55;;;21.60;62.10;;;;;;5112228;28;20189;-59
2023/08/03 07:05:51;;;;;;;3.03;1.40;;;21.60;62.10;;;;;;5122210;28;20291;-58
2023/08/03 07:08:19;;;;;;;4.85;1.73;;;21.70;62.20;;;;;;5123544;28;20299;-63
2023/08/03 07:10:48;;;;;;;4.10;1.52;;;21.60;62.10;;;;;;5120429;27;20228;-59
2023/08/03 07:13:16;;;;;;;3.72;1.52;;;21.70;62.20;;;;;;5125852;28;20184;-61
2023/08/03 07:15:43;;;;;;;5.00;1.70;;;21.70;62.20;;;;;;5128864;28;20234;-57
2023/08/03 07:18:11;;;;;;;17.98;2.25;;;21.80;62.40;;;;;;5129551;28;20226;-57
2023/08/03 07:21:12;;;;;;;225.00;8.70;;;21.70;62.20;;;;;;5126812;28;20296;-60
2023/08/03 07:23:40;;;;;;;49.47;3.47;;;21.80;62.30;;;;;;5060722;28;20799;-59
2023/08/03 07:28:57;;;;;;;26.88;2.92;;;21.90;62.30;;;;;;5086314;28;20218;-60
2023/08/03 07:31:26;;;;;;;19.77;2.72;;;21.90;62.30;;;;;;5122030;28;20221;-61
2023/08/03 07:33:53;;;;;;;8.68;2.10;;;21.90;62.30;;;;;;5130886;28;20227;-60
2023/08/03 07:36:20;;;;;;;17.77;2.35;;;21.90;62.30;;;;;;5130898;28;20239;-59
2023/08/03 07:38:58;;;;;;;;;;;;;;;;;;;;;
2023/08/03 07:41:30;;;;;;;6.57;1.73;;;22.00;62.40;;;;;;5077482;28;20235;-59
2023/08/03 07:43:58;;;;;;;6.95;1.60;;;22.00;62.30;;;;;;5118830;27;20193;-58
2023/08/03 07:46:40;;;;;;;5.43;1.77;;;22.00;62.40;;;;;;5118290;28;20220;-59
2023/08/03 07:49:25;;;;;;;5.03;2.08;;;22.00;62.40;;;;;;5126102;28;20304;-59
2023/08/03 07:51:52;;;;;;;8.73;1.80;;;22.00;62.30;;;;;;5128483;28;20196;-57
2023/08/03 07:54:31;;;;;;;7.38;2.13;;;22.10;62.40;;;;;;5125863;27;20199;-60
2023/08/03 07:57:00;;;;;;;9.40;1.65;;;22.10;62.40;;;;;;5075014;27;20201;-59
2023/08/03 07:59:27;;;;;;;6.55;2.08;;;22.10;62.30;;;;;;5119004;27;20197;-60
2023/08/03 08:01:59;;;;;;;4.25;1.77;;;22.10;62.20;;;;;;5127414;27;20204;-59
2023/08/03 08:04:26;;;;;;;6.93;2.25;;;22.10;62.20;;;;;;5125328;27;20211;-62
2023/08/03 08:06:53;;;;;;;1.80;1.33;;;22.10;62.20;;;;;;5132418;27;20216;-62
2023/08/03 08:09:22;;;;;;;3.03;1.60;;;22.10;62.20;;;;;;5132537;27;20200;-61
2023/08/03 08:11:51;;;;;;;3.03;1.40;;;22.10;62.20;;;;;;5133253;27;20224;-62
2023/08/03 08:14:19;;;;;;;5.45;1.73;;;22.20;62.30;;;;;;5132616;27;20194;-59
2023/08/03 08:16:48;;;;;;;7.93;1.77;;;22.20;62.20;;;;;;5133135;27;20719;-64
2023/08/03 08:19:15;;;;;;;4.30;1.70;;;22.20;62.20;;;;;;5133920;27;20184;-64
2023/08/03 08:21:43;;;;;;;3.03;1.50;;;22.20;62.20;;;;;;5132940;27;20303;-64
2023/08/03 08:24:10;;;;;;;2.55;1.33;;;22.20;62.20;;;;;;5132152;27;20191;-61
2023/08/03 08:26:37;;;;;;;4.03;1.50;;;22.20;62.20;;;;;;5133791;27;20570;-59
2023/08/03 08:29:05;;;;;;;8.20;1.50;;;22.20;62.20;;;;;;5132927;27;20216;-60
2023/08/03 08:34:18;;;;;;;4.82;1.73;;;22.30;62.10;;;;;;5133191;27;20227;-61
2023/08/03 08:37:05;;;;;;;4.57;1.73;;;22.30;62.10;;;;;;5119019;27;20786;-61
2023/08/03 08:40:26;;;;;;;2.58;1.40;;;22.30;61.90;;;;;;5114322;27;20201;-61
2023/08/03 08:42:54;;;;;;;4.82;1.48;;;22.40;62.10;;;;;;5062808;27;20310;-60
2023/08/03 08:45:22;;;;;;;3.33;1.40;;;22.40;62.00;;;;;;5132953;27;20216;-61
2023/08/03 08:47:51;;;;;;;7.43;1.90;;;22.40;62.00;;;;;;5101461;27;20675;-61
2023/08/03 08:50:40;;;;;;;4.70;1.73;;;22.40;61.90;;;;;;5108687;27;20377;-61
2023/08/03 08:53:08;;;;;;;7.47;1.77;;;22.40;61.90;;;;;;5097808;27;20578;-61
2023/08/03 08:55:36;;;;;;;6.55;1.80;;;22.50;61.90;;;;;;5132552;27;20299;-62
2023/08/03 08:58:04;;;;;;;3.55;1.40;;;22.50;61.90;;;;;;5110067;27;20202;-60
2023/08/03 09:01:03;;;;;;;3.85;1.65;;;22.50;61.80;;;;;;5126549;27;20303;-60
2023/08/03 09:03:46;;;;;;;5.30;1.58;;;22.50;61.80;;;;;;5087479;27;20204;-60
2023/08/03 09:06:13;;;;;;;3.15;1.35;;;22.50;61.80;;;;;;5132692;27;20220;-59
2023/08/03 09:11:41;;;;;;;4.10;1.70;;;22.50;61.70;;;;;;5070158;28;20220;-59
2023/08/03 09:14:09;;;;;;;4.63;1.55;;;22.60;61.80;;;;;;5071449;27;20615;-59
2023/08/03 09:16:38;;;;;;;1.92;1.30;;;22.60;61.80;;;;;;5119724;27;20300;-59
2023/08/03 09:19:07;;;;;;;4.97;1.40;;;22.60;61.70;;;;;;5113390;27;20279;-59
2023/08/03 09:21:34;;;;;;;4.90;1.30;;;22.60;61.60;;;;;;5125998;27;20260;-59
2023/08/03 09:24:37;;;;;;;4.75;1.50;;;22.70;61.70;;;;;;5108914;27;20185;-59
2023/08/03 09:27:05;;;;;;;4.47;1.65;;;22.70;61.60;;;;;;5105035;28;20265;-59
2023/08/03 09:29:34;;;;;;;3.38;1.48;;;22.70;61.50;;;;;;5124053;27;20208;-59
2023/08/03 09:32:03;;;;;;;3.47;1.45;;;22.70;61.60;;;;;;5131915;27;20315;-59
2023/08/03 09:34:40;;;;;;;3.28;1.67;;;22.70;61.50;;;;;;5131889;27;20216;-59
2023/08/03 09:37:08;;;;;;;5.38;1.40;;;22.80;61.60;;;;;;5132370;27;20223;-59
2023/08/03 09:39:37;;;;;;;4.10;1.77;;;22.70;61.40;;;;;;5123842;27;20987;-58
2023/08/03 09:42:07;;;;;;;4.15;1.48;;;22.80;61.50;;;;;;5131953;27;20704;-58
2023/08/03 09:44:35;;;;;;;4.75;1.70;;;22.80;61.40;;;;;;5131863;27;20188;-56
2023/08/03 09:47:03;;;;;;;5.43;1.90;;;22.80;61.40;;;;;;5110813;27;20217;-59
2023/08/03 09:49:33;;;;;;;4.50;1.58;;;22.80;61.40;;;;;;5119903;27;21611;-59
2023/08/03 09:52:07;;;;;;;3.40;1.48;;;22.80;61.40;;;;;;5098876;28;20715;-59
2023/08/03 09:54:40;;;;;;;4.03;1.55;;;22.80;61.40;;;;;;5111240;27;20245;-57
2023/08/03 09:57:11;;;;;;;4.82;1.60;;;22.80;61.30;;;;;;5111431;28;20221;-59
2023/08/03 09:59:43;;;;;;;6.22;1.65;;;22.80;61.30;;;;;;5114432;27;20299;-59
2023/08/03 10:02:14;;;;;;;5.75;1.50;;;22.90;61.40;;;;;;5108717;27;20212;-59
2023/08/03 10:04:44;;;;;;;3.25;1.52;;;22.80;61.20;;;;;;5122598;27;20243;-58
2023/08/03 10:07:54;;;;;;;4.68;1.35;;;22.90;61.30;;;;;;5131691;27;20295;-59
2023/08/03 10:10:26;;;;;;;4.55;1.48;;;22.90;61.30;;;;;;5128569;27;20196;-59
2023/08/03 10:13:22;;;;;;;4.00;1.40;;;22.90;61.30;;;;;;5131325;27;20196;-58
2023/08/03 10:15:49;;;;;;;4.60;1.63;;;22.90;61.20;;;;;;5131293;27;20303;-59
2023/08/03 10:18:27;;;;;;;3.60;1.52;;;22.90;61.20;;;;;;5131753;27;20192;-59
2023/08/03 10:20:55;;;;;;;2.80;1.40;;;22.80;61.10;;;;;;5124095;27;20752;-58
2023/08/03 10:23:22;;;;;;;3.30;1.35;;;22.90;61.10;;;;;;5118337;27;20193;-57
2023/08/03 10:25:56;;;;;;;6.03;1.65;;;22.90;61.10;;;;;;5131239;27;20216;-57
2023/08/03 10:28:25;;;;;;;5.38;1.83;;;22.90;61.00;;;;;;5124871;27;20221;-59
2023/08/03 10:31:12;;;;;;;4.32;1.30;;;22.90;61.00;;;;;;5100442;28;20221;-58
2023/08/03 10:34:03;;;;;;;4.47;1.45;;;22.90;61.00;;;;;;5107010;27;20315;-57
2023/08/03 10:36:49;;;;;;;6.18;1.50;;;23.00;61.00;;;;;;5122834;27;20212;-56
2023/08/03 10:39:37;;;;;;;5.18;1.55;;;22.90;60.90;;;;;;5126458;27;20189;-59
2023/08/03 10:42:25;;;;;;;3.67;1.52;;;22.90;60.90;;;;;;5129996;27;20208;-58
2023/08/03 10:44:53;;;;;;;4.18;1.70;;;23.00;61.00;;;;;;5127233;27;20203;-58
2023/08/03 10:47:24;;;;;;;5.68;2.15;;;22.90;60.90;;;;;;5130259;28;20300;-58
2023/08/03 10:49:54;;;;;;;6.93;1.80;;;22.90;60.90;;;;;;5118061;28;20306;-59
2023/08/03 10:52:29;;;;;;;4.40;1.83;;;23.00;61.00;;;;;;5131057;28;20216;-58
2023/08/03 10:54:58;;;;;;;4.43;1.88;;;22.90;60.80;;;;;;5122042;28;20196;-59
2023/08/03 10:57:29;;;;;;;3.05;1.58;;;22.90;60.90;;;;;;5112811;28;20224;-57
2023/08/03 10:59:57;;;;;;;5.82;1.92;;;22.90;61.70;;;;;;5122039;28;20649;-57
2023/08/03 11:02:28;;;;;;;5.10;2.00;;;22.90;60.90;;;;;;5130964;28;20224;-58
2023/08/03 11:05:03;;;;;;;6.88;3.30;;;22.90;60.90;;;;;;5131524;28;20216;-59
2023/08/03 11:07:39;;;;;;;9.70;5.57;;;22.90;60.90;;;;;;5130964;28;20211;-57
2023/08/03 11:10:27;;;;;;;12.77;8.52;;;22.90;60.80;;;;;;5122986;28;20220;-58
2023/08/03 11:12:56;;;;;;;13.75;9.35;;;22.90;60.70;;;;;;5130826;28;20307;-60
2023/08/03 11:15:23;;;;;;;16.48;10.60;;;22.90;60.70;;;;;;5130426;28;20192;-58
2023/08/03 11:17:50;;;;;;;19.10;13.55;;;23.00;60.90;;;;;;5130715;28;20717;-59
2023/08/03 11:20:19;;;;;;;15.65;9.77;;;22.90;60.70;;;;;;5131038;28;20263;-58
2023/08/03 11:22:46;;;;;;;18.00;12.88;;;22.90;60.80;;;;;;5130544;28;20224;-56
2023/08/03 11:25:13;;;;;;;17.08;10.55;;;22.90;60.80;;;;;;5131108;28;20184;-58
2023/08/03 11:27:41;;;;;;;13.27;8.93;;;22.90;60.80;;;;;;5131954;27;20223;-58
2023/08/03 11:30:10;;;;;;;16.13;8.95;;;23.00;61.00;;;;;;5135132;27;20209;-56
2023/08/03 11:32:39;;;;;;;9.80;6.95;;;23.00;61.10;;;;;;5134252;27;20336;-58
2023/08/03 11:35:10;;;;;;;11.50;6.97;;;22.90;60.90;;;;;;5125017;27;20262;-58
2023/08/03 11:37:38;;;;;;;7.97;6.28;;;23.00;61.00;;;;;;5134602;27;20728;-57
2023/08/03 11:40:08;;;;;;;29.20;7.32;;;23.00;60.90;;;;;;5134401;27;20253;-58
2023/08/03 11:42:39;;;;;;;24.65;7.20;;;23.00;60.90;;;;;;5133510;27;20217;-58
2023/08/03 11:45:07;;;;;;;74.43;10.52;;;23.00;61.00;;;;;;5134520;27;20188;-60
2023/08/03 11:47:44;;;;;;;34.70;7.82;;;23.00;61.10;;;;;;5134129;27;20297;-59
2023/08/03 11:50:11;;;;;;;36.85;8.02;;;22.90;61.10;;;;;;5131920;27;20219;-59
2023/08/03 11:52:38;;;;;;;30.48;7.47;;;23.00;61.10;;;;;;5125622;27;20589;-58
2023/08/03 11:55:06;;;;;;;30.60;7.60;;;23.00;61.10;;;;;;5128105;27;20608;-63
2023/08/03 12:00:18;;;;;;;19.08;6.13;;;23.00;61.00;;;;;;5122081;27;20245;-61
2023/08/03 12:02:47;;;;;;;23.63;5.78;;;23.00;61.00;;;;;;5120900;27;20432;-64
2023/08/03 12:05:18;;;;;;;23.70;5.22;;;23.00;61.10;;;;;;5121016;27;20721;-60
2023/08/03 12:07:57;;;;;;;16.98;4.90;;;23.00;61.10;;;;;;5108102;27;20278;-63
2023/08/03 12:10:25;;;;;;;21.33;5.03;;;23.00;61.20;;;;;;5119938;27;20224;-57
2023/08/03 12:13:14;;;;;;;12.25;4.45;;;23.00;61.20;;;;;;5101962;27;20239;-59
2023/08/03 12:15:41;;;;;;;15.68;4.50;;;23.10;61.20;;;;;;5124122;27;20233;-57
2023/08/03 12:18:17;;;;;;;24.95;13.48;;;23.10;61.20;;;;;;5122062;27;20208;-60
2023/08/03 12:24:28;;;;;;;18.60;6.88;;;23.20;61.00;;;;;;5056115;28;20201;-59
2023/08/03 12:27:01;;;;;;;12.20;5.40;;;23.30;61.00;;;;;;5063437;28;20317;-57
2023/08/03 12:29:50;;;;;;;13.50;4.75;;;23.30;60.80;;;;;;5003889;28;20352;-58
2023/08/03 12:35:25;;;;;;;10.23;4.20;;;23.40;60.70;;;;;;5023964;28;20790;-56
2023/08/03 12:37:52;;;;;;;8.45;4.00;;;23.40;60.60;;;;;;5061055;28;20330;-59
2023/08/03 12:40:19;;;;;;;15.95;4.45;;;23.40;60.60;;;;;;5066779;28;20195;-56
2023/08/03 12:42:49;;;;;;;11.80;3.85;;;23.40;60.50;;;;;;5067742;28;20219;-59
2023/08/03 12:45:37;;;;;;;9.63;3.47;;;23.40;60.40;;;;;;5068127;28;20278;-61
2023/08/03 12:51:42;;;;;;;7.88;3.03;;;23.50;60.50;;;;;;5010890;28;20313;-60
2023/08/03 12:57:17;;;;;;;9.90;3.17;;;23.50;60.40;;;;;;5102011;27;20373;-61
2023/08/03 12:59:45;;;;;;;8.07;3.35;;;23.50;60.40;;;;;;5126545;27;20212;-60
2023/08/03 13:05:35;;;;;;;9.57;3.83;;;23.60;60.50;;;;;;5126586;27;20219;-60
2023/08/03 13:08:06;;;;;;;9.18;3.08;;;23.60;60.50;;;;;;5113496;27;20231;-60
2023/08/03 13:10:37;;;;;;;61.42;40.05;;;23.70;60.60;;;;;;5116361;27;20885;-60
2023/08/03 13:15:48;;;;;;;17.60;9.15;;;23.70;60.60;;;;;;5063497;28;20206;-60
2023/08/03 13:18:18;;;;;;;11.77;7.28;;;23.80;60.60;;;;;;5125874;27;20299;-59
2023/08/03 13:20:45;;;;;;;11.23;6.43;;;23.80;60.60;;;;;;5116920;27;20196;-58
2023/08/03 13:23:17;;;;;;;13.95;5.35;;;23.70;60.50;;;;;;5126353;27;20253;-61
2023/08/03 13:25:49;;;;;;;75.55;52.85;;;23.80;60.70;;;;;;5092146;27;20224;-62
2023/08/03 13:28:19;;;;;;;30.92;22.55;;;23.80;60.80;;;;;;5124490;27;20665;-63
2023/08/03 13:31:00;;;;;;;23.83;13.25;;;23.80;60.90;;;;;;5073580;27;20232;-61